createdAt,value
2018-03-26T00:01:57.169Z,15.70
2018-03-26T00:04:25.429Z,19.87
2018-03-26T00:06:54.443Z,22.93
2018-03-26T00:09:22.706Z,22.20
2018-03-26T00:11:51.712Z,23.70
2018-03-26T00:14:20.727Z,22.13
2018-03-26T00:16:48.981Z,19.47
2018-03-26T00:19:18.009Z,19.07
2018-03-26T00:21:46.262Z,18.73
2018-03-26T00:24:15.288Z,20.97
2018-03-26T00:26:43.541Z,19.17
2018-03-26T00:29:12.556Z,18.33
2018-03-26T00:31:40.821Z,22.10
2018-03-26T00:34:09.969Z,18.90
2018-03-26T00:36:38.218Z,19.73
2018-03-26T00:39:06.539Z,18.55
2018-03-26T00:41:34.784Z,17.20
2018-03-26T00:44:03.054Z,20.00
2018-03-26T00:46:31.295Z,18.07
2018-03-26T00:48:59.535Z,17.17
2018-03-26T00:51:27.799Z,16.10
2018-03-26T00:53:56.040Z,16.43
2018-03-26T00:56:24.449Z,16.80
2018-03-26T00:58:53.456Z,18.33
2018-03-26T01:01:21.704Z,16.05
2018-03-26T01:03:49.970Z,14.97
2018-03-26T01:06:18.212Z,15.67
2018-03-26T01:08:46.470Z,18.00
2018-03-26T01:11:14.734Z,17.17
2018-03-26T01:13:43.758Z,18.87
2018-03-26T01:16:12.000Z,23.07
2018-03-26T01:18:40.260Z,22.87
2018-03-26T01:21:08.515Z,21.27
2018-03-26T01:23:36.748Z,16.63
2018-03-26T01:26:05.771Z,18.17
2018-03-26T01:28:34.019Z,19.50
2018-03-26T01:31:02.275Z,20.07
2018-03-26T01:33:30.540Z,18.35
2018-03-26T01:35:58.782Z,22.83
2018-03-26T01:38:27.809Z,18.87
2018-03-26T01:40:56.074Z,20.97
2018-03-26T01:43:24.324Z,19.27
2018-03-26T01:45:52.565Z,18.77
2018-03-26T01:48:20.840Z,17.20
2018-03-26T01:50:49.102Z,16.93
2018-03-26T01:53:17.364Z,17.10
2018-03-26T01:55:45.619Z,16.87
2018-03-26T01:58:13.879Z,18.10
2018-03-26T02:00:42.122Z,17.40
2018-03-26T02:03:10.405Z,20.97
2018-03-26T02:05:38.659Z,17.57
2018-03-26T02:08:07.672Z,18.67
2018-03-26T02:10:35.930Z,17.13
2018-03-26T02:13:05.013Z,17.43
2018-03-26T02:15:33.203Z,20.03
2018-03-26T02:18:02.232Z,18.07
2018-03-26T02:20:30.490Z,20.57
2018-03-26T02:22:59.496Z,21.20
2018-03-26T02:25:28.520Z,19.87
2018-03-26T02:27:56.769Z,18.40
2018-03-26T02:30:25.796Z,17.53
2018-03-26T02:32:54.049Z,16.60
2018-03-26T02:35:23.061Z,17.13
2018-03-26T02:37:51.308Z,16.30
2018-03-26T02:40:19.560Z,14.90
2018-03-26T02:42:47.804Z,17.97
2018-03-26T02:45:16.096Z,17.43
2018-03-26T02:47:44.341Z,15.53
2018-03-26T02:50:13.361Z,16.37
2018-03-26T02:52:41.636Z,18.47
2018-03-26T02:55:10.653Z,14.73
2018-03-26T02:57:38.896Z,15.32
2018-03-26T03:00:09.162Z,17.37
2018-03-26T03:02:37.413Z,15.17
2018-03-26T03:05:06.425Z,17.07
2018-03-26T03:07:34.694Z,17.20
2018-03-26T03:10:03.698Z,15.53
2018-03-26T03:12:31.967Z,15.67
2018-03-26T03:15:00.239Z,17.83
2018-03-26T03:17:29.248Z,15.43
2018-03-26T03:19:57.524Z,17.70
2018-03-26T03:22:25.791Z,16.00
2018-03-26T03:24:54.812Z,15.90
2018-03-26T03:27:23.060Z,15.93
2018-03-26T03:29:51.331Z,16.80
2018-03-26T03:32:19.575Z,15.97
2018-03-26T03:34:47.819Z,13.77
2018-03-26T03:37:16.843Z,14.43
2018-03-26T03:39:45.117Z,14.63
2018-03-26T03:42:14.275Z,45.45
2018-03-26T03:44:42.532Z,44.27
2018-03-26T03:47:10.807Z,29.60
2018-03-26T03:49:39.048Z,24.90
2018-03-26T03:52:07.317Z,23.38
2018-03-26T03:54:36.324Z,18.23
2018-03-26T03:57:04.580Z,17.77
2018-03-26T03:59:32.839Z,19.23
2018-03-26T04:02:01.084Z,21.20
2018-03-26T04:04:29.335Z,18.50
2018-03-26T04:06:58.360Z,17.60
2018-03-26T04:09:26.633Z,18.37
2018-03-26T04:11:54.875Z,19.00
2018-03-26T04:14:23.128Z,16.90
2018-03-26T04:16:51.396Z,18.83
2018-03-26T04:19:19.649Z,16.20
2018-03-26T04:21:47.908Z,15.17
2018-03-26T04:24:16.929Z,16.10
2018-03-26T04:26:45.201Z,24.03
2018-03-26T04:29:14.209Z,20.05
2018-03-26T04:31:42.448Z,15.63
2018-03-26T04:34:10.743Z,16.20
2018-03-26T04:36:38.948Z,17.60
2018-03-26T04:39:07.188Z,16.70
2018-03-26T04:41:35.453Z,15.20
2018-03-26T04:44:03.701Z,15.67
2018-03-26T04:46:31.942Z,14.57
2018-03-26T04:49:00.967Z,14.23
2018-03-26T04:51:29.216Z,18.20
2018-03-26T04:53:58.232Z,14.83
2018-03-26T04:56:27.248Z,19.37
2018-03-26T04:58:55.503Z,17.83
2018-03-26T05:01:24.615Z,17.30
2018-03-26T05:03:53.633Z,16.90
2018-03-26T05:06:21.884Z,17.47
2018-03-26T05:08:50.916Z,15.90
2018-03-26T05:11:19.165Z,16.93
2018-03-26T05:13:48.174Z,14.90
2018-03-26T05:16:16.433Z,16.90
2018-03-26T05:18:45.440Z,16.13
2018-03-26T05:21:13.687Z,16.35
2018-03-26T05:23:42.090Z,15.23
2018-03-26T05:26:11.097Z,14.13
2018-03-26T05:28:40.103Z,15.10
2018-03-26T05:31:08.426Z,15.00
2018-03-26T05:33:37.376Z,15.70
2018-03-26T05:36:05.619Z,13.30
2018-03-26T05:38:33.888Z,15.03
2018-03-26T05:41:02.137Z,11.93
2018-03-26T05:43:30.372Z,12.97
2018-03-26T05:45:58.623Z,11.27
2018-03-26T05:48:26.868Z,13.63
2018-03-26T05:50:55.121Z,13.97
2018-03-26T05:53:24.139Z,13.10
2018-03-26T05:55:52.392Z,13.68
2018-03-26T05:58:21.421Z,12.70
2018-03-26T06:00:49.676Z,12.60
2018-03-26T06:03:18.689Z,12.45
2018-03-26T06:05:47.704Z,12.77
2018-03-26T06:08:15.949Z,13.53
2018-03-26T06:10:44.960Z,14.07
2018-03-26T06:13:13.746Z,16.30
2018-03-26T06:15:42.760Z,14.15
2018-03-26T06:18:11.768Z,15.07
2018-03-26T06:20:40.021Z,12.87
2018-03-26T06:23:09.036Z,12.40
2018-03-26T06:25:37.304Z,30.23
2018-03-26T06:28:06.336Z,14.90
2018-03-26T06:30:34.616Z,22.87
2018-03-26T06:33:02.840Z,25.10
2018-03-26T06:35:31.110Z,22.17
2018-03-26T06:41:01.252Z,14.27
2018-03-26T06:43:30.389Z,13.53
2018-03-26T06:45:58.644Z,14.43
2018-03-26T06:48:27.654Z,16.37
2018-03-26T06:50:55.922Z,15.55
2018-03-26T06:53:24.929Z,14.67
2018-03-26T06:55:53.937Z,17.53
2018-03-26T06:58:22.204Z,16.20
2018-03-26T07:00:51.217Z,15.70
2018-03-26T07:03:19.459Z,14.53
2018-03-26T07:05:49.514Z,15.02
2018-03-26T07:08:17.759Z,15.43
2018-03-26T07:10:46.781Z,17.20
2018-03-26T07:13:15.485Z,17.77
2018-03-26T07:15:43.760Z,19.53
2018-03-26T07:18:12.000Z,14.03
2018-03-26T07:20:40.267Z,18.43
2018-03-26T07:23:08.524Z,19.43
2018-03-26T07:25:36.764Z,14.40
2018-03-26T07:28:05.796Z,15.87
2018-03-26T07:30:34.040Z,17.13
2018-03-26T07:33:03.052Z,15.03
2018-03-26T07:35:31.317Z,18.08
2018-03-26T07:38:00.330Z,19.50
2018-03-26T07:40:29.348Z,18.37
2018-03-26T07:42:57.624Z,14.80
2018-03-26T07:45:25.873Z,15.20
2018-03-26T07:47:54.884Z,17.50
2018-03-26T07:50:23.899Z,18.37
2018-03-26T07:52:52.159Z,15.90
2018-03-26T07:55:20.405Z,16.33
2018-03-26T07:57:49.664Z,16.65
2018-03-26T08:00:17.928Z,16.17
2018-03-26T08:02:46.176Z,14.00
2018-03-26T08:05:14.415Z,16.40
2018-03-26T08:07:42.671Z,18.17
2018-03-26T08:10:10.940Z,18.90
2018-03-26T08:12:39.947Z,16.23
2018-03-26T08:15:08.208Z,16.53
2018-03-26T08:17:37.268Z,20.03
2018-03-26T08:20:05.512Z,18.00
2018-03-26T08:22:33.779Z,20.00
2018-03-26T08:25:02.807Z,16.67
2018-03-26T08:27:31.060Z,17.65
2018-03-26T08:30:01.312Z,17.57
2018-03-26T08:32:29.606Z,16.33
2018-03-26T08:34:57.868Z,18.47
2018-03-26T08:37:26.125Z,24.70
2018-03-26T08:39:55.848Z,23.02
2018-03-26T08:42:24.134Z,16.83
2018-03-26T08:44:53.120Z,21.80
2018-03-26T08:47:21.371Z,21.70
2018-03-26T08:49:49.711Z,19.67
2018-03-26T08:52:17.880Z,19.67
2018-03-26T08:54:46.139Z,22.10
2018-03-26T08:57:15.156Z,22.90
2018-03-26T08:59:43.429Z,20.73
2018-03-26T09:02:11.667Z,21.03
2018-03-26T09:04:39.912Z,22.80
2018-03-26T09:07:08.168Z,27.80
2018-03-26T09:09:36.426Z,28.83
2018-03-26T09:12:06.691Z,29.07
2018-03-26T09:14:34.944Z,28.00
2018-03-26T09:17:03.213Z,29.30
2018-03-26T09:19:32.236Z,31.23
2018-03-26T09:22:00.491Z,33.50
2018-03-26T09:24:29.514Z,35.83
2018-03-26T09:26:57.776Z,33.72
2018-03-26T09:29:26.787Z,35.50
2018-03-26T09:31:55.047Z,33.07
2018-03-26T09:34:24.072Z,30.40
2018-03-26T09:36:52.337Z,32.00
2018-03-26T09:39:20.579Z,33.20
2018-03-26T09:41:48.835Z,33.00
2018-03-26T09:44:17.096Z,33.37
2018-03-26T09:46:45.345Z,32.93
2018-03-26T09:49:14.372Z,33.83
2018-03-26T09:51:42.632Z,35.63
2018-03-26T09:54:11.699Z,34.90
2018-03-26T09:56:39.968Z,34.67
2018-03-26T09:59:08.215Z,37.57
2018-03-26T10:04:34.161Z,41.63
2018-03-26T10:07:02.404Z,34.50
2018-03-26T10:09:30.660Z,35.55
2018-03-26T10:11:58.924Z,34.63
2018-03-26T10:14:27.187Z,35.60
2018-03-26T10:16:55.440Z,37.00
2018-03-26T10:19:23.700Z,36.07
2018-03-26T10:21:52.712Z,35.83
2018-03-26T10:24:20.960Z,34.80
2018-03-26T10:26:49.232Z,36.23
2018-03-26T10:29:17.519Z,37.43
2018-03-26T10:31:45.758Z,40.00
2018-03-26T10:34:14.014Z,34.87
2018-03-26T10:36:42.269Z,35.60
2018-03-26T10:39:10.520Z,33.17
2018-03-26T10:41:38.774Z,38.17
2018-03-26T10:44:07.020Z,36.03
2018-03-26T10:46:36.057Z,40.73
2018-03-26T10:49:04.304Z,39.90
2018-03-26T10:51:33.324Z,36.17
2018-03-26T10:54:01.597Z,37.73
2018-03-26T10:56:29.872Z,36.70
2018-03-26T10:58:58.127Z,37.20
2018-03-26T11:01:26.370Z,33.93
2018-03-26T11:03:54.632Z,35.90
2018-03-26T11:06:22.901Z,36.03
2018-03-26T11:08:51.160Z,37.27
2018-03-26T11:11:20.180Z,37.73
2018-03-26T11:13:48.460Z,36.37
2018-03-26T11:16:16.869Z,34.13
2018-03-26T11:18:45.026Z,35.87
2018-03-26T11:21:13.285Z,37.93
2018-03-26T11:23:41.541Z,39.67
2018-03-26T11:26:09.796Z,32.30
2018-03-26T11:28:38.040Z,37.03
2018-03-26T11:31:06.299Z,34.20
2018-03-26T11:33:34.548Z,35.50
2018-03-26T11:36:03.477Z,38.25
2018-03-26T11:38:32.525Z,37.37
2018-03-26T11:41:00.793Z,50.50
2018-03-26T11:43:29.040Z,43.87
2018-03-26T11:45:57.338Z,45.27
2018-03-26T11:48:25.571Z,48.83
2018-03-26T11:50:53.825Z,42.00
2018-03-26T11:53:22.089Z,38.60
2018-03-26T11:55:50.336Z,37.33
2018-03-26T11:58:18.600Z,38.03
2018-03-26T12:00:47.619Z,39.78
2018-03-26T12:03:15.899Z,45.40
2018-03-26T12:05:44.139Z,37.53
2018-03-26T12:08:12.412Z,38.13
2018-03-26T12:10:40.727Z,38.07
2018-03-26T12:13:09.753Z,38.37
2018-03-26T12:15:38.000Z,42.53
2018-03-26T12:18:07.041Z,39.17
2018-03-26T12:20:52.809Z,41.53
2018-03-26T12:23:38.780Z,42.03
2018-03-26T12:26:07.796Z,42.17
2018-03-26T12:28:53.547Z,39.00
2018-03-26T12:31:22.565Z,40.90
2018-03-26T12:34:08.340Z,40.63
2018-03-26T12:36:36.602Z,41.27
2018-03-26T12:39:05.621Z,40.50
2018-03-26T12:41:33.876Z,43.60
2018-03-26T12:44:02.897Z,44.30
2018-03-26T12:46:41.786Z,41.67
2018-03-26T12:49:10.029Z,39.20
2018-03-26T12:51:55.868Z,42.80
2018-03-26T12:54:24.125Z,40.80
2018-03-26T12:57:10.073Z,40.23
2018-03-26T12:59:38.333Z,37.77
2018-03-26T13:02:20.949Z,43.10
2018-03-26T13:04:50.445Z,37.40
2018-03-26T13:07:18.695Z,36.73
2018-03-26T13:09:47.723Z,40.13
2018-03-26T13:12:15.964Z,39.13
2018-03-26T13:14:44.221Z,38.67
2018-03-26T13:17:12.492Z,37.33
2018-03-26T13:19:40.740Z,43.65
2018-03-26T13:22:08.988Z,38.83
2018-03-26T13:24:37.268Z,37.23
2018-03-26T13:27:05.515Z,38.97
2018-03-26T13:29:33.791Z,37.58
2018-03-26T13:32:02.052Z,33.63
2018-03-26T13:34:30.308Z,37.07
2018-03-26T13:36:58.569Z,36.33
2018-03-26T13:39:27.340Z,33.00
2018-03-26T13:41:55.623Z,34.15
2018-03-26T13:44:23.853Z,33.80
2018-03-26T13:46:52.118Z,32.47
2018-03-26T13:49:21.133Z,32.53
2018-03-26T13:51:49.505Z,31.33
2018-03-26T13:54:18.522Z,31.37
2018-03-26T13:56:46.770Z,34.50
2018-03-26T13:59:15.775Z,36.40
2018-03-26T14:01:44.799Z,43.53
2018-03-26T14:04:13.055Z,45.60
2018-03-26T14:06:42.258Z,46.20
2018-03-26T14:09:28.716Z,46.17
2018-03-26T14:12:14.523Z,49.55
2018-03-26T14:15:01.101Z,49.65
2018-03-26T14:17:46.901Z,52.67
2018-03-26T14:20:15.926Z,47.77
2018-03-26T14:22:45.470Z,60.10
2018-03-26T14:25:13.713Z,48.63
2018-03-26T14:27:41.953Z,51.13
2018-03-26T14:30:10.235Z,48.87
2018-03-26T14:32:38.479Z,50.87
2018-03-26T14:38:29.027Z,52.70
2018-03-26T14:40:58.050Z,50.78
2018-03-26T14:43:26.307Z,52.67
2018-03-26T14:45:55.320Z,53.07
2018-03-26T14:48:23.572Z,50.10
2018-03-26T14:50:52.736Z,63.10
2018-03-26T14:53:20.982Z,50.53
2018-03-26T14:55:49.244Z,59.83
2018-03-26T14:58:18.264Z,54.07
2018-03-26T15:00:46.528Z,62.67
2018-03-26T15:03:14.792Z,72.67
2018-03-26T15:05:43.804Z,55.22
2018-03-26T15:08:12.808Z,54.20
2018-03-26T15:10:41.247Z,53.53
2018-03-26T15:13:10.196Z,50.43
2018-03-26T15:15:38.444Z,53.55
2018-03-26T15:18:07.475Z,54.07
2018-03-26T15:20:35.727Z,48.47
2018-03-26T15:23:04.737Z,50.70
2018-03-26T15:25:33.769Z,62.17
2018-03-26T15:28:02.018Z,52.47
2018-03-26T15:30:31.030Z,55.00
2018-03-26T15:32:59.288Z,52.17
2018-03-26T15:35:28.312Z,51.22
2018-03-26T15:37:56.581Z,50.92
2018-03-26T15:40:24.836Z,54.83
2018-03-26T15:42:53.859Z,49.50
2018-03-26T15:45:22.105Z,55.47
2018-03-26T15:47:50.386Z,53.63
2018-03-26T15:50:18.621Z,53.33
2018-03-26T15:52:46.881Z,52.37
2018-03-26T15:55:15.148Z,57.77
2018-03-26T15:57:44.151Z,51.70
2018-03-26T16:00:12.400Z,49.07
2018-03-26T16:02:45.922Z,57.27
2018-03-26T16:05:14.940Z,51.60
2018-03-26T16:07:43.181Z,52.43
2018-03-26T16:10:11.438Z,53.27
2018-03-26T16:12:39.685Z,53.90
2018-03-26T16:15:07.924Z,51.07
2018-03-26T16:17:36.953Z,54.58
2018-03-26T16:20:05.216Z,53.20
2018-03-26T16:22:34.247Z,54.43
2018-03-26T16:25:02.497Z,49.00
2018-03-26T16:27:32.747Z,56.80
2018-03-26T16:30:01.047Z,56.10
2018-03-26T16:32:29.515Z,53.47
2018-03-26T16:34:57.778Z,58.97
2018-03-26T16:37:26.037Z,56.63
2018-03-26T16:39:55.065Z,55.70
2018-03-26T16:42:27.951Z,53.90
2018-03-26T16:44:57.454Z,48.93
2018-03-26T16:47:25.699Z,52.00
2018-03-26T16:49:53.959Z,53.05
2018-03-26T16:52:22.220Z,54.17
2018-03-26T16:54:50.463Z,51.30
2018-03-26T16:57:18.764Z,52.93
2018-03-26T16:59:47.748Z,53.75
2018-03-26T17:02:16.029Z,48.07
2018-03-26T17:04:44.281Z,53.23
2018-03-26T17:07:12.536Z,57.87
2018-03-26T17:09:40.806Z,59.53
2018-03-26T17:12:09.052Z,68.00
2018-03-26T17:14:37.303Z,56.13
2018-03-26T17:17:05.586Z,58.90
2018-03-26T17:19:34.809Z,56.80
2018-03-26T17:22:03.111Z,53.35
2018-03-26T17:24:31.328Z,55.57
2018-03-26T17:26:59.599Z,54.30
2018-03-26T17:29:27.855Z,57.27
2018-03-26T17:31:56.131Z,47.80
2018-03-26T17:34:24.374Z,48.20
2018-03-26T17:36:54.630Z,53.67
2018-03-26T17:39:22.893Z,53.70
2018-03-26T17:41:51.899Z,56.40
2018-03-26T17:44:20.172Z,55.07
2018-03-26T17:46:49.188Z,57.10
2018-03-26T17:49:17.453Z,59.40
2018-03-26T17:51:45.704Z,54.55
2018-03-26T17:54:13.972Z,59.07
2018-03-26T17:56:42.216Z,52.63
2018-03-26T17:59:10.465Z,48.90
2018-03-26T18:01:39.484Z,50.13
2018-03-26T18:04:07.729Z,46.75
2018-03-26T18:06:36.017Z,48.13
2018-03-26T18:09:04.389Z,47.30
2018-03-26T18:11:32.639Z,44.63
2018-03-26T18:14:00.904Z,45.05
2018-03-26T18:16:29.172Z,34.80
2018-03-26T18:18:59.428Z,41.33
2018-03-26T18:21:27.696Z,37.50
2018-03-26T18:23:55.962Z,40.63
2018-03-26T18:26:24.204Z,40.80
2018-03-26T18:28:53.112Z,37.00
2018-03-26T18:31:22.151Z,43.90
2018-03-26T18:33:50.394Z,39.57
2018-03-26T18:36:19.425Z,38.83
2018-03-26T18:38:47.682Z,39.80
2018-03-26T18:41:15.924Z,43.00
2018-03-26T18:43:44.192Z,43.85
2018-03-26T18:46:12.436Z,43.08
2018-03-26T18:48:40.692Z,47.43
2018-03-26T18:51:08.947Z,46.70
2018-03-26T18:53:37.194Z,54.83
2018-03-26T18:56:05.447Z,65.33
2018-03-26T18:58:33.702Z,54.75
2018-03-26T19:01:02.707Z,59.67
2018-03-26T19:03:30.959Z,51.87
2018-03-26T19:05:59.212Z,44.60
2018-03-26T19:08:27.471Z,48.83
2018-03-26T19:10:55.733Z,46.13
2018-03-26T19:13:24.742Z,47.93
2018-03-26T19:15:53.008Z,47.20
2018-03-26T19:18:21.265Z,46.83
2018-03-26T19:20:49.528Z,46.00
2018-03-26T19:23:17.801Z,44.03
2018-03-26T19:25:46.060Z,46.87
2018-03-26T19:28:14.303Z,44.80
2018-03-26T19:30:43.329Z,47.83
2018-03-26T19:33:11.592Z,50.07
2018-03-26T19:35:39.846Z,50.07
2018-03-26T19:38:08.100Z,56.08
2018-03-26T19:40:37.872Z,57.58
2018-03-26T19:43:06.132Z,55.70
2018-03-26T19:45:35.155Z,52.10
2018-03-26T19:48:03.417Z,54.70
2018-03-26T19:50:32.434Z,50.20
2018-03-26T19:53:00.697Z,47.07
2018-03-26T19:55:29.728Z,48.20
2018-03-26T19:57:57.977Z,49.03
2018-03-26T20:00:26.225Z,53.90
2018-03-26T20:02:54.483Z,53.67
2018-03-26T20:05:22.736Z,48.10
2018-03-26T20:07:50.998Z,49.67
2018-03-26T20:10:19.265Z,48.03
2018-03-26T20:12:49.518Z,48.67
2018-03-26T20:15:17.780Z,49.47
2018-03-26T20:17:46.809Z,49.50
2018-03-26T20:20:15.040Z,50.35
2018-03-26T20:22:44.070Z,49.87
2018-03-26T20:25:12.350Z,49.40
2018-03-26T20:27:40.592Z,52.62
2018-03-26T20:30:08.856Z,52.53
2018-03-26T20:32:37.103Z,53.40
2018-03-26T20:35:05.369Z,50.37
2018-03-26T20:37:33.636Z,56.33
2018-03-26T20:40:02.657Z,58.43
2018-03-26T20:42:30.916Z,56.67
2018-03-26T20:44:59.934Z,66.73
2018-03-26T20:47:28.192Z,57.73
2018-03-26T20:49:57.238Z,56.57
2018-03-26T20:52:25.485Z,57.93
2018-03-26T20:54:54.625Z,62.55
2018-03-26T20:57:22.884Z,59.83
2018-03-26T20:59:51.156Z,57.97
2018-03-26T21:02:19.412Z,60.90
2018-03-26T21:04:47.665Z,55.97
2018-03-26T21:07:15.920Z,58.53
2018-03-26T21:09:44.872Z,59.50
2018-03-26T21:12:13.144Z,61.05
2018-03-26T21:14:42.162Z,62.97
2018-03-26T21:17:10.424Z,62.57
2018-03-26T21:19:39.434Z,66.25
2018-03-26T21:22:07.697Z,69.47
2018-03-26T21:24:36.710Z,64.30
2018-03-26T21:27:06.343Z,64.60
2018-03-26T21:29:34.596Z,62.97
2018-03-26T21:32:02.851Z,67.47
2018-03-26T21:34:31.120Z,62.60
2018-03-26T21:36:59.944Z,64.43
2018-03-26T21:39:28.947Z,68.50
2018-03-26T21:41:57.968Z,69.93
2018-03-26T21:44:26.226Z,65.72
2018-03-26T21:46:55.246Z,71.13
2018-03-26T21:49:23.488Z,72.37
2018-03-26T21:51:52.516Z,75.05
2018-03-26T21:54:20.772Z,75.00
2018-03-26T21:56:49.794Z,79.87
2018-03-26T21:59:18.046Z,77.23
2018-03-26T22:01:46.300Z,75.27
2018-03-26T22:04:14.541Z,76.32
2018-03-26T22:06:42.779Z,73.57
2018-03-26T22:09:12.219Z,78.82
2018-03-26T22:11:40.460Z,75.97
2018-03-26T22:14:08.723Z,77.90
2018-03-26T22:16:36.961Z,76.80
2018-03-26T22:19:05.228Z,75.50
2018-03-26T22:21:34.252Z,78.10
2018-03-26T22:24:02.519Z,81.50
2018-03-26T22:26:30.760Z,78.53
2018-03-26T22:28:59.012Z,73.87
2018-03-26T22:31:27.276Z,71.50
2018-03-26T22:33:55.531Z,69.30
2018-03-26T22:36:23.796Z,67.27
2018-03-26T22:38:52.817Z,67.63
2018-03-26T22:41:21.087Z,67.07
2018-03-26T22:43:50.093Z,67.20
2018-03-26T22:46:18.345Z,68.10
2018-03-26T22:48:47.374Z,67.87
2018-03-26T22:51:15.637Z,65.50
2018-03-26T22:53:44.656Z,65.17
2018-03-26T22:56:12.916Z,67.20
2018-03-26T22:58:41.926Z,71.10
2018-03-26T23:01:11.016Z,70.32
2018-03-26T23:03:39.262Z,74.00
2018-03-26T23:06:07.528Z,74.30
2018-03-26T23:08:35.788Z,76.33
2018-03-26T23:11:04.048Z,77.47
2018-03-26T23:13:32.304Z,75.73
2018-03-26T23:16:01.322Z,70.97
2018-03-26T23:18:29.581Z,69.18
2018-03-26T23:20:58.606Z,61.27
2018-03-26T23:23:26.860Z,69.47
2018-03-26T23:25:55.877Z,68.30
2018-03-26T23:28:24.406Z,67.70
2018-03-26T23:30:52.653Z,66.43
2018-03-26T23:33:20.892Z,65.70
2018-03-26T23:35:49.913Z,73.97
2018-03-26T23:38:18.165Z,68.45
2018-03-26T23:40:46.425Z,71.40
2018-03-26T23:43:15.725Z,66.03
2018-03-26T23:45:43.985Z,67.73
2018-03-26T23:48:12.231Z,66.87
2018-03-26T23:50:41.257Z,65.63
2018-03-26T23:53:09.514Z,69.70
2018-03-26T23:55:38.532Z,67.53
2018-03-26T23:58:06.784Z,76.13
